Time;durP1;ratioP1;P1;durP2;ratioP2;P2;SDS_P1;SDS_P2;PMS_P1;PMS_P2;Temp;Humidity;BMP_temperature;BMP_pressure;BME280_temperature;BME280_humidity;BME280_pressure;Samples;Min_cycle;Max_cycle;Signal;HPM_P1;HPM_P2
2022/08/03 00:01:03;;;;;;;;;;;23.60;50.30;;;;;;5090431;28;19970;-59
2022/08/03 00:03:30;;;;;;;;;;;23.60;50.30;;;;;;5079892;28;19939;-59
2022/08/03 00:05:57;;;;;;;;;;;23.60;50.30;;;;;;5090587;28;19921;-59
2022/08/03 00:08:24;;;;;;;;;;;23.60;50.30;;;;;;5079462;28;20179;-59
2022/08/03 00:10:50;;;;;;;;;;;23.60;50.30;;;;;;5072124;28;19943;-59
2022/08/03 00:13:18;;;;;;;;;;;23.60;50.30;;;;;;5082881;28;19985;-59
2022/08/03 00:15:45;;;;;;;;;;;23.60;50.30;;;;;;5080010;28;19924;-60
2022/08/03 00:18:13;;;;;;;;;;;23.60;50.30;;;;;;5091958;28;20323;-59
2022/08/03 00:20:40;;;;;;;;;;;23.60;50.40;;;;;;5095628;28;19920;-59
2022/08/03 00:23:06;;;;;;;;;;;23.60;50.40;;;;;;5093354;28;19994;-59
2022/08/03 00:25:33;;;;;;;;;;;23.60;50.40;;;;;;5079047;28;20547;-59
2022/08/03 00:28:00;;;;;;;;;;;23.60;50.40;;;;;;5091457;28;20332;-57
2022/08/03 00:30:27;;;;;;;;;;;23.60;50.40;;;;;;5081126;28;19926;-59
2022/08/03 00:32:53;;;;;;;;;;;23.60;50.50;;;;;;5076080;28;20372;-59
2022/08/03 00:35:22;;;;;;;;;;;23.60;50.50;;;;;;5079445;28;20323;-58
2022/08/03 00:37:48;;;;;;;;;;;23.60;50.50;;;;;;5077575;28;20341;-59
2022/08/03 00:40:15;;;;;;;;;;;23.60;50.50;;;;;;5076457;28;20377;-59
2022/08/03 00:42:52;;;;;;;;;;;23.60;50.50;;;;;;5076967;28;19931;-59
2022/08/03 00:45:19;;;;;;;;;;;23.60;50.50;;;;;;5073296;28;19920;-59
2022/08/03 00:47:46;;;;;;;;;;;23.60;50.60;;;;;;5078739;28;20326;-59
2022/08/03 00:50:13;;;;;;;;;;;23.60;50.60;;;;;;5074946;28;19924;-60
2022/08/03 00:52:41;;;;;;;;;;;23.60;50.60;;;;;;5074788;28;19963;-60
2022/08/03 00:55:08;;;;;;;;;;;23.60;50.70;;;;;;5111160;27;19955;-59
2022/08/03 00:57:34;;;;;;;;;;;23.60;50.70;;;;;;5078317;28;20345;-60
2022/08/03 01:00:01;;;;;;;;;;;23.60;50.70;;;;;;5080445;28;20396;-61
2022/08/03 01:02:28;;;;;;;;;;;23.60;50.80;;;;;;5085496;28;19920;-58
2022/08/03 01:04:55;;;;;;;;;;;23.60;50.80;;;;;;5095515;28;19951;-60
2022/08/03 01:07:24;;;;;;;;;;;23.60;50.80;;;;;;5076980;28;19978;-60
2022/08/03 01:09:54;;;;;;;;;;;23.60;50.80;;;;;;5075797;28;20412;-60
2022/08/03 01:12:22;;;;;;;;;;;23.60;50.80;;;;;;5071032;28;19924;-59
2022/08/03 01:14:51;;;;;;;;;;;23.60;50.80;;;;;;5095124;28;19964;-59
2022/08/03 01:17:19;;;;;;;;;;;23.60;50.90;;;;;;5092451;28;20015;-60
2022/08/03 01:19:46;;;;;;;;;;;23.60;50.90;;;;;;5079253;28;19931;-60
2022/08/03 01:22:22;;;;;;;;;;;23.60;50.90;;;;;;5074553;28;19931;-59
2022/08/03 01:24:50;;;;;;;;;;;23.60;50.90;;;;;;5076165;28;19927;-59
2022/08/03 01:27:19;;;;;;;;;;;23.60;50.90;;;;;;5088029;28;19924;-59
2022/08/03 01:30:00;;;;;;;;;;;23.60;50.90;;;;;;5078360;28;19928;-60
2022/08/03 01:32:29;;;;;;;;;;;23.60;51.00;;;;;;5075222;28;20324;-60
2022/08/03 01:34:58;;;;;;;;;;;23.60;50.90;;;;;;5072905;28;19970;-61
2022/08/03 01:37:27;;;;;;;;;;;23.60;51.00;;;;;;5078502;28;20350;-61
2022/08/03 01:39:55;;;;;;;;;;;23.60;51.00;;;;;;5109128;27;19942;-60
2022/08/03 01:42:21;;;;;;;;;;;23.60;51.00;;;;;;5073122;28;19924;-60
2022/08/03 01:44:48;;;;;;;;;;;23.60;51.00;;;;;;5091274;28;19973;-60
2022/08/03 01:47:16;;;;;;;;;;;23.60;51.10;;;;;;5079029;28;20615;-60
2022/08/03 01:49:43;;;;;;;;;;;23.60;51.10;;;;;;5092264;28;19924;-61
2022/08/03 01:52:10;;;;;;;;;;;23.60;51.20;;;;;;5080922;28;20268;-60
2022/08/03 01:54:38;;;;;;;;;;;23.60;51.20;;;;;;5083848;28;20283;-60
2022/08/03 01:57:05;;;;;;;;;;;23.60;51.20;;;;;;5109173;27;19927;-62
2022/08/03 01:59:32;;;;;;;;;;;23.60;51.30;;;;;;5095726;28;20284;-59
2022/08/03 02:01:59;;;;;;;;;;;23.60;51.30;;;;;;5079796;28;19931;-60
2022/08/03 02:04:27;;;;;;;;;;;23.60;51.30;;;;;;5095285;28;20102;-60
2022/08/03 02:06:54;;;;;;;;;;;23.60;51.40;;;;;;5089273;28;19920;-61
2022/08/03 02:09:21;;;;;;;;;;;23.60;51.40;;;;;;5093015;28;19920;-60
2022/08/03 02:11:48;;;;;;;;;;;23.60;51.50;;;;;;5094317;28;19943;-60
2022/08/03 02:14:14;;;;;;;;;;;23.60;51.50;;;;;;5069672;28;19986;-60
2022/08/03 02:16:41;;;;;;;;;;;23.60;51.50;;;;;;5078284;28;19951;-60
2022/08/03 02:19:08;;;;;;;;;;;23.60;51.50;;;;;;5079669;28;20011;-61
2022/08/03 02:21:37;;;;;;;;;;;23.60;51.50;;;;;;5075579;28;19931;-60
2022/08/03 02:24:04;;;;;;;;;;;23.60;51.50;;;;;;5076273;28;19924;-60
2022/08/03 02:26:31;;;;;;;;;;;23.60;51.50;;;;;;5074801;28;19921;-60
2022/08/03 02:28:59;;;;;;;;;;;23.60;51.50;;;;;;5075017;28;19930;-60
2022/08/03 02:31:27;;;;;;;;;;;23.60;51.50;;;;;;5089413;28;20055;-60
2022/08/03 02:33:55;;;;;;;;;;;23.60;51.50;;;;;;5092864;28;20659;-60
2022/08/03 02:36:24;;;;;;;;;;;23.60;51.60;;;;;;5084112;28;20013;-59
2022/08/03 02:38:53;;;;;;;;;;;23.60;51.60;;;;;;5092285;28;19965;-60
2022/08/03 02:41:21;;;;;;;;;;;23.60;51.60;;;;;;5073824;28;19924;-60
2022/08/03 02:43:48;;;;;;;;;;;23.60;51.60;;;;;;5073637;28;19925;-60
2022/08/03 02:46:17;;;;;;;;;;;23.60;51.60;;;;;;5072292;28;19920;-60
2022/08/03 02:48:44;;;;;;;;;;;23.60;51.60;;;;;;5076768;28;20254;-59
2022/08/03 02:51:11;;;;;;;;;;;23.60;51.60;;;;;;5094636;28;19920;-60
2022/08/03 02:53:38;;;;;;;;;;;23.60;51.60;;;;;;5079406;28;19963;-60
2022/08/03 02:56:06;;;;;;;;;;;23.60;51.60;;;;;;5097015;28;19972;-60
2022/08/03 02:58:32;;;;;;;;;;;23.60;51.60;;;;;;5081106;28;19928;-60
2022/08/03 03:00:59;;;;;;;;;;;23.60;51.60;;;;;;5077152;28;19924;-60
2022/08/03 03:03:26;;;;;;;;;;;23.60;51.60;;;;;;5074804;28;19921;-60
2022/08/03 03:05:53;;;;;;;;;;;23.60;51.60;;;;;;5085054;28;19924;-60
2022/08/03 03:08:20;;;;;;;;;;;23.60;51.60;;;;;;5076801;28;20361;-60
2022/08/03 03:10:46;;;;;;;;;;;23.60;51.60;;;;;;5080229;28;19948;-60
2022/08/03 03:13:15;;;;;;;;;;;23.60;51.60;;;;;;5080681;28;19982;-60
2022/08/03 03:15:41;;;;;;;;;;;23.60;51.70;;;;;;5080647;28;19977;-60
2022/08/03 03:18:08;;;;;;;;;;;23.60;51.70;;;;;;5076259;28;19924;-60
2022/08/03 03:20:35;;;;;;;;;;;23.60;51.70;;;;;;5109018;27;20265;-60
2022/08/03 03:23:02;;;;;;;;;;;23.60;51.70;;;;;;5097202;28;20425;-61
2022/08/03 03:25:29;;;;;;;;;;;23.60;51.70;;;;;;5088443;28;20041;-60
2022/08/03 03:27:56;;;;;;;;;;;23.60;51.70;;;;;;5079111;28;19928;-60
2022/08/03 03:30:24;;;;;;;;;;;23.60;51.70;;;;;;5081332;28;19919;-60
2022/08/03 03:32:51;;;;;;;;;;;23.50;51.70;;;;;;5096342;28;20350;-60
2022/08/03 03:35:17;;;;;;;;;;;23.60;51.80;;;;;;5091875;28;19927;-59
2022/08/03 03:37:44;;;;;;;;;;;23.60;51.80;;;;;;5085200;28;19921;-59
2022/08/03 03:40:11;;;;;;;;;;;23.60;51.80;;;;;;5081247;28;19978;-60
2022/08/03 03:42:38;;;;;;;;;;;23.50;51.70;;;;;;5079703;28;20422;-60
2022/08/03 03:45:05;;;;;;;;;;;23.60;51.80;;;;;;5075549;28;19924;-59
2022/08/03 03:47:33;;;;;;;;;;;23.60;51.80;;;;;;5075511;28;20389;-58
2022/08/03 03:50:00;;;;;;;;;;;23.60;51.80;;;;;;5075899;28;19977;-58
2022/08/03 03:52:26;;;;;;;;;;;23.50;51.80;;;;;;5076549;28;19925;-59
2022/08/03 03:54:53;;;;;;;;;;;23.50;51.80;;;;;;5080388;28;20472;-59
2022/08/03 03:57:20;;;;;;;;;;;23.60;51.90;;;;;;5093529;28;19937;-60
2022/08/03 03:59:46;;;;;;;;;;;23.50;51.90;;;;;;5079130;28;20347;-59
2022/08/03 04:02:13;;;;;;;;;;;23.50;51.80;;;;;;5078400;28;19927;-59
2022/08/03 04:12:57;;;;;;;;;;;23.50;51.90;;;;;;5080576;28;19943;-60
2022/08/03 04:15:24;;;;;;;;;;;23.50;51.90;;;;;;5093368;28;20423;-60
2022/08/03 04:17:51;;;;;;;;;;;23.50;51.90;;;;;;5075216;28;20019;-60
2022/08/03 04:20:19;;;;;;;;;;;23.50;51.90;;;;;;5087954;28;19924;-60
2022/08/03 04:22:46;;;;;;;;;;;23.50;51.90;;;;;;5093768;28;20532;-60
2022/08/03 04:25:13;;;;;;;;;;;23.50;51.90;;;;;;5080353;28;19973;-61
2022/08/03 04:27:40;;;;;;;;;;;23.60;52.00;;;;;;5087117;28;19921;-59
2022/08/03 04:30:07;;;;;;;;;;;23.50;51.90;;;;;;5080175;28;20415;-60
2022/08/03 04:32:34;;;;;;;;;;;23.50;51.90;;;;;;5072926;28;19924;-60
2022/08/03 04:35:00;;;;;;;;;;;23.50;51.90;;;;;;5078918;28;20284;-60
2022/08/03 04:37:31;;;;;;;;;;;23.50;51.90;;;;;;5078304;28;19935;-59
2022/08/03 04:39:58;;;;;;;;;;;23.50;51.90;;;;;;5073108;28;19921;-60
2022/08/03 04:42:24;;;;;;;;;;;23.60;52.00;;;;;;5075858;28;20313;-59
2022/08/03 04:44:51;;;;;;;;;;;23.50;51.90;;;;;;5094757;28;19920;-59
2022/08/03 04:47:18;;;;;;;;;;;23.60;51.90;;;;;;5089072;28;19926;-60
2022/08/03 04:49:44;;;;;;;;;;;23.50;51.90;;;;;;5076749;28;19939;-59
2022/08/03 04:52:11;;;;;;;;;;;23.60;52.50;;;;;;5076878;28;19920;-59
2022/08/03 04:54:43;;;;;;;;;;;23.50;51.90;;;;;;5075543;28;19939;-59
2022/08/03 04:57:10;;;;;;;;;;;23.50;51.90;;;;;;5075942;28;20065;-59
2022/08/03 04:59:36;;;;;;;;;;;23.50;51.90;;;;;;5079333;28;19968;-59
2022/08/03 05:02:03;;;;;;;;;;;23.50;51.90;;;;;;5075260;28;19920;-59
2022/08/03 05:04:30;;;;;;;;;;;23.50;51.90;;;;;;5090293;28;19975;-59
2022/08/03 05:06:57;;;;;;;;;;;23.50;51.90;;;;;;5112597;27;20307;-60
2022/08/03 05:09:23;;;;;;;;;;;23.50;51.90;;;;;;5074461;28;19926;-61
2022/08/03 05:11:52;;;;;;;;;;;23.50;51.90;;;;;;5094452;28;19920;-60
2022/08/03 05:14:19;;;;;;;;;;;23.50;51.90;;;;;;5090294;28;19931;-60
2022/08/03 05:16:45;;;;;;;;;;;23.50;51.90;;;;;;5075054;28;19983;-60
2022/08/03 05:19:12;;;;;;;;;;;23.50;52.00;;;;;;5093540;28;19927;-60
2022/08/03 05:21:39;;;;;;;;;;;23.50;52.00;;;;;;5074267;28;19920;-59
2022/08/03 05:24:06;;;;;;;;;;;23.50;52.00;;;;;;5077778;28;19963;-60
2022/08/03 05:26:33;;;;;;;;;;;23.50;52.00;;;;;;5077402;28;19969;-59
2022/08/03 05:29:01;;;;;;;;;;;23.50;52.00;;;;;;5095662;28;19964;-60
2022/08/03 05:31:28;;;;;;;;;;;23.50;52.00;;;;;;5072353;28;20345;-60
2022/08/03 05:33:55;;;;;;;;;;;23.50;52.00;;;;;;5096198;28;19920;-59
2022/08/03 05:36:21;;;;;;;;;;;23.60;52.10;;;;;;5077576;28;19920;-59
2022/08/03 05:38:48;;;;;;;;;;;23.60;52.10;;;;;;5078613;28;19981;-59
2022/08/03 05:41:15;;;;;;;;;;;23.50;52.10;;;;;;5093322;28;19920;-59
2022/08/03 05:43:41;;;;;;;;;;;23.60;52.20;;;;;;5078499;28;19967;-59
2022/08/03 05:46:10;;;;;;;;;;;23.50;52.10;;;;;;5091722;28;19926;-60
2022/08/03 05:48:36;;;;;;;;;;;23.50;52.10;;;;;;5078765;28;19959;-60
2022/08/03 05:51:05;;;;;;;;;;;23.50;52.00;;;;;;5075199;28;19937;-60
2022/08/03 05:53:32;;;;;;;;;;;23.60;52.20;;;;;;5075494;28;20323;-60
2022/08/03 05:55:59;;;;;;;;;;;23.50;52.10;;;;;;5090195;28;20384;-60
2022/08/03 05:58:26;;;;;;;;;;;23.50;52.00;;;;;;5073892;28;19929;-60
2022/08/03 06:00:53;;;;;;;;;;;23.60;52.10;;;;;;5081874;28;19921;-59
2022/08/03 06:03:21;;;;;;;;;;;23.60;52.10;;;;;;5074233;28;20290;-60
2022/08/03 06:05:47;;;;;;;;;;;23.60;52.10;;;;;;5075241;28;19952;-60
2022/08/03 06:08:14;;;;;;;;;;;23.60;52.10;;;;;;5074505;28;19924;-59
2022/08/03 06:10:41;;;;;;;;;;;23.60;52.10;;;;;;5075012;28;20340;-59
2022/08/03 06:13:08;;;;;;;;;;;23.60;52.10;;;;;;5068697;28;19920;-60
2022/08/03 06:15:35;;;;;;;;;;;23.60;52.10;;;;;;5100735;28;20316;-59
2022/08/03 06:18:01;;;;;;;;;;;23.60;52.10;;;;;;5057395;28;19943;-59
2022/08/03 06:20:30;;;;;;;;;;;23.60;52.00;;;;;;5052673;28;19943;-60
2022/08/03 06:22:57;;;;;;;;;;;23.60;52.10;;;;;;5071752;28;19952;-60
2022/08/03 06:25:24;;;;;;;;;;;23.60;52.10;;;;;;5105873;28;20361;-59
2022/08/03 06:27:51;;;;;;;;;;;23.60;52.10;;;;;;5098097;28;19921;-59
2022/08/03 06:30:18;;;;;;;;;;;23.60;52.20;;;;;;5108829;28;19928;-59
2022/08/03 06:32:44;;;;;;;;;;;23.60;52.20;;;;;;5074664;28;19920;-60
2022/08/03 06:35:11;;;;;;;;;;;23.60;52.20;;;;;;5075983;28;19933;-60
2022/08/03 06:37:44;;;;;;;;;;;23.60;52.20;;;;;;5068180;28;19921;-60
2022/08/03 06:40:11;;;;;;;;;;;23.60;52.20;;;;;;5097124;27;19931;-60
2022/08/03 06:42:38;;;;;;;;;;;23.60;52.20;;;;;;5068584;28;20380;-61
2022/08/03 06:45:05;;;;;;;;;;;23.60;52.20;;;;;;5099207;28;20011;-60
2022/08/03 06:47:32;;;;;;;;;;;23.60;52.20;;;;;;5079202;28;19920;-60
2022/08/03 06:49:59;;;;;;;;;;;23.60;52.20;;;;;;5087912;28;19921;-60
2022/08/03 06:52:25;;;;;;;;;;;23.60;52.30;;;;;;5078579;28;19920;-61
2022/08/03 06:54:53;;;;;;;;;;;23.70;52.40;;;;;;5093247;28;20423;-60
2022/08/03 06:57:21;;;;;;;;;;;23.60;52.30;;;;;;5078439;28;20474;-61
2022/08/03 06:59:47;;;;;;;;;;;23.70;52.40;;;;;;5065140;28;19921;-61
2022/08/03 07:02:14;;;;;;;;;;;23.70;52.50;;;;;;5078932;28;19967;-61
2022/08/03 07:04:41;;;;;;;;;;;23.70;52.40;;;;;;5075616;28;20258;-61
2022/08/03 07:07:07;;;;;;;;;;;23.70;52.50;;;;;;5083552;28;20015;-60
2022/08/03 07:09:34;;;;;;;;;;;23.70;52.50;;;;;;5069459;28;20433;-61
2022/08/03 07:12:03;;;;;;;;;;;23.70;52.50;;;;;;5083031;28;19966;-60
2022/08/03 07:14:30;;;;;;;;;;;23.70;52.50;;;;;;5071299;28;20224;-61
2022/08/03 07:16:56;;;;;;;;;;;23.70;52.60;;;;;;5068559;28;20341;-61
2022/08/03 07:19:23;;;;;;;;;;;23.70;52.60;;;;;;5079252;28;19977;-62
2022/08/03 07:21:50;;;;;;;;;;;23.80;52.70;;;;;;5078132;28;19966;-61
2022/08/03 07:24:16;;;;;;;;;;;23.80;52.80;;;;;;5094070;28;20261;-61
2022/08/03 07:26:43;;;;;;;;;;;23.80;52.90;;;;;;5076033;28;19936;-60
2022/08/03 07:29:11;;;;;;;;;;;23.80;52.90;;;;;;5080356;28;19928;-60
2022/08/03 07:31:38;;;;;;;;;;;23.80;53.00;;;;;;5072735;28;20014;-61
2022/08/03 07:34:05;;;;;;;;;;;23.80;53.10;;;;;;5072877;28;19927;-61
2022/08/03 07:36:32;;;;;;;;;;;23.80;53.10;;;;;;5077063;28;19971;-61
2022/08/03 07:38:59;;;;;;;;;;;23.80;53.10;;;;;;5077820;28;19928;-61
2022/08/03 07:41:25;;;;;;;;;;;23.80;53.10;;;;;;5081708;28;19951;-60
2022/08/03 07:43:52;;;;;;;;;;;23.90;53.20;;;;;;5074554;28;19967;-61
2022/08/03 07:46:20;;;;;;;;;;;23.90;53.20;;;;;;5096359;28;19959;-60
2022/08/03 07:48:47;;;;;;;;;;;23.90;53.20;;;;;;5082874;28;20323;-61
2022/08/03 07:51:14;;;;;;;;;;;23.90;53.20;;;;;;5097658;28;19920;-62
2022/08/03 07:53:40;;;;;;;;;;;23.90;53.20;;;;;;5090312;28;19927;-61
2022/08/03 07:56:07;;;;;;;;;;;23.90;53.10;;;;;;5102911;27;19928;-60
2022/08/03 07:58:35;;;;;;;;;;;23.90;53.10;;;;;;5107528;27;19936;-61
2022/08/03 08:01:01;;;;;;;;;;;23.90;53.10;;;;;;5074265;28;19924;-60
2022/08/03 08:03:30;;;;;;;;;;;24.00;53.20;;;;;;5082557;28;19920;-60
2022/08/03 08:05:56;;;;;;;;;;;24.00;53.20;;;;;;5073317;28;20255;-61
2022/08/03 08:08:23;;;;;;;;;;;24.00;53.20;;;;;;5075334;28;19966;-61
2022/08/03 08:10:50;;;;;;;;;;;24.00;53.10;;;;;;5067674;28;19924;-61
2022/08/03 08:13:16;;;;;;;;;;;24.00;53.10;;;;;;5072875;28;19920;-61
2022/08/03 08:15:43;;;;;;;;;;;24.00;53.10;;;;;;5072030;28;19928;-60
2022/08/03 08:18:11;;;;;;;;;;;24.00;53.10;;;;;;5070167;28;20393;-62
2022/08/03 08:20:39;;;;;;;;;;;24.00;53.10;;;;;;5079349;28;19927;-61
2022/08/03 08:23:07;;;;;;;;;;;24.10;53.20;;;;;;5074761;28;19920;-60
2022/08/03 08:25:35;;;;;;;;;;;24.10;53.20;;;;;;5084296;28;19966;-62
2022/08/03 08:28:03;;;;;;;;;;;24.10;53.10;;;;;;5093449;28;19959;-60
2022/08/03 08:30:30;;;;;;;;;;;24.10;53.10;;;;;;5088402;28;19920;-60
2022/08/03 08:32:57;;;;;;;;;;;24.10;53.10;;;;;;5075639;28;19952;-60
2022/08/03 08:35:23;;;;;;;;;;;24.10;53.10;;;;;;5096934;28;19932;-61
2022/08/03 08:37:51;;;;;;;;;;;24.10;53.00;;;;;;5070236;28;20016;-60
2022/08/03 08:40:19;;;;;;;;;;;24.10;53.00;;;;;;5089870;28;19963;-60
2022/08/03 08:42:46;;;;;;;;;;;24.10;53.00;;;;;;5094520;28;19985;-61
2022/08/03 08:45:14;;;;;;;;;;;24.10;53.00;;;;;;5078915;28;20365;-61
2022/08/03 08:47:41;;;;;;;;;;;24.10;53.00;;;;;;5069337;28;19967;-62
2022/08/03 08:50:09;;;;;;;;;;;24.10;53.00;;;;;;5094706;28;19925;-60
2022/08/03 08:52:36;;;;;;;;;;;24.10;53.00;;;;;;5070481;28;19920;-61
2022/08/03 08:55:05;;;;;;;;;;;24.10;53.00;;;;;;5073017;28;19920;-61
2022/08/03 08:57:34;;;;;;;;;;;24.10;53.00;;;;;;5078849;28;20362;-62
2022/08/03 09:00:01;;;;;;;;;;;24.10;53.10;;;;;;5065033;28;19971;-60
2022/08/03 09:02:29;;;;;;;;;;;24.10;53.00;;;;;;5074261;28;19970;-61
2022/08/03 09:04:56;;;;;;;;;;;24.10;53.00;;;;;;5073918;28;19921;-61
2022/08/03 09:07:23;;;;;;;;;;;24.10;53.00;;;;;;5071220;28;20235;-62
2022/08/03 09:09:49;;;;;;;;;;;24.10;53.10;;;;;;5096408;28;20443;-62
2022/08/03 09:12:17;;;;;;;;;;;24.10;53.10;;;;;;5072859;28;20357;-61
2022/08/03 09:14:45;;;;;;;;;;;24.20;53.20;;;;;;5070064;28;19920;-63
2022/08/03 09:17:11;;;;;;;;;;;24.20;53.20;;;;;;5076845;28;19920;-61
2022/08/03 09:19:38;;;;;;;;;;;24.20;53.30;;;;;;5078748;28;19960;-62
2022/08/03 09:22:09;;;;;;;;;;;24.20;53.30;;;;;;5109300;27;19978;-62
2022/08/03 09:24:36;;;;;;;;;;;24.20;53.30;;;;;;5081982;28;19920;-60
2022/08/03 09:27:04;;;;;;;;;;;24.20;53.30;;;;;;5071242;28;20011;-60
2022/08/03 09:29:33;;;;;;;;;;;24.20;53.30;;;;;;5076958;28;19978;-62
2022/08/03 09:32:01;;;;;;;;;;;24.20;53.40;;;;;;5090326;28;19920;-62
2022/08/03 09:34:28;;;;;;;;;;;24.20;53.40;;;;;;5107219;27;20105;-62
2022/08/03 09:36:56;;;;;;;;;;;24.20;53.40;;;;;;5071466;28;19924;-61
2022/08/03 09:39:24;;;;;;;;;;;24.20;53.40;;;;;;5067138;28;19924;-62
2022/08/03 09:42:04;;;;;;;;;;;24.20;53.40;;;;;;5075209;28;19927;-61
2022/08/03 09:44:35;;;;;;;;;;;24.30;53.50;;;;;;5075911;28;19970;-60
2022/08/03 09:47:02;;;;;;;;;;;24.20;53.50;;;;;;5114931;27;19938;-60
2022/08/03 09:49:29;;;;;;;;;;;24.20;53.50;;;;;;5088008;28;19920;-59
2022/08/03 09:51:56;;;;;;;;;;;24.30;53.70;;;;;;5075402;28;19927;-61
2022/08/03 09:54:26;;;;;;;;;;;24.30;53.70;;;;;;5078090;28;19927;-62
2022/08/03 09:56:52;;;;;;;;;;;24.30;53.70;;;;;;5071550;28;19920;-61
2022/08/03 09:59:23;;;;;;;;;;;24.30;54.30;;;;;;5069751;28;20518;-60
2022/08/03 10:01:51;;;;;;;;;;;24.30;53.70;;;;;;5078921;28;19942;-60
2022/08/03 10:04:18;;;;;;;;;;;24.30;53.80;;;;;;5075302;28;20312;-60
2022/08/03 10:06:45;;;;;;;;;;;24.30;53.70;;;;;;5087116;28;20285;-61
2022/08/03 10:09:12;;;;;;;;;;;24.30;53.70;;;;;;5068190;28;20354;-60
2022/08/03 10:11:41;;;;;;;;;;;24.30;53.70;;;;;;5090467;28;23804;-63
2022/08/03 10:14:08;;;;;;;;;;;24.30;53.70;;;;;;5072403;28;19925;-61
2022/08/03 10:16:35;;;;;;;;;;;24.30;53.70;;;;;;5073235;28;19920;-60
2022/08/03 10:19:03;;;;;;;;;;;24.30;53.70;;;;;;5080817;28;19982;-60
2022/08/03 10:21:32;;;;;;;;;;;24.30;53.70;;;;;;5065134;28;19924;-60
2022/08/03 10:23:59;;;;;;;;;;;24.30;53.70;;;;;;5077682;28;19928;-60
2022/08/03 10:26:25;;;;;;;;;;;24.30;53.80;;;;;;5065558;28;19920;-59
2022/08/03 10:28:53;;;;;;;;;;;24.30;53.80;;;;;;5102065;28;20329;-59
2022/08/03 10:31:20;;;;;;;;;;;24.30;53.80;;;;;;5082133;28;19921;-60
2022/08/03 10:33:47;;;;;;;;;;;24.30;53.80;;;;;;5063292;28;19921;-60
2022/08/03 10:36:15;;;;;;;;;;;24.30;53.80;;;;;;5086058;28;19932;-63
2022/08/03 10:38:44;;;;;;;;;;;24.30;53.80;;;;;;5062771;28;19920;-62
2022/08/03 10:41:11;;;;;;;;;;;24.30;54.00;;;;;;5070616;28;19921;-62
2022/08/03 10:43:40;;;;;;;;;;;24.30;54.00;;;;;;5064907;28;19920;-62
2022/08/03 10:46:07;;;;;;;;;;;24.30;54.00;;;;;;5090709;28;19924;-62
2022/08/03 10:48:34;;;;;;;;;;;24.30;53.90;;;;;;5067497;28;20362;-62
2022/08/03 10:51:01;;;;;;;;;;;24.30;53.90;;;;;;5061357;28;19959;-62
2022/08/03 10:53:36;;;;;;;;;;;24.30;53.90;;;;;;5058403;28;20111;-62
2022/08/03 10:58:48;;;;;;;;;;;24.30;53.80;;;;;;5060529;28;19927;-62
2022/08/03 11:01:15;;;;;;;;;;;24.30;53.80;;;;;;5065749;28;20324;-62
2022/08/03 11:03:57;;;;;;;;;;;24.30;53.80;;;;;;5070229;28;19921;-62
2022/08/03 11:06:24;;;;;;;;;;;24.40;53.90;;;;;;5070407;28;20421;-61
2022/08/03 11:09:13;;;;;;;;;;;24.30;53.90;;;;;;5079589;28;19920;-62
2022/08/03 11:11:39;;;;;;;;;;;24.40;54.00;;;;;;5063748;28;19966;-62
2022/08/03 11:14:07;;;;;;;;;;;24.40;54.10;;;;;;5074216;28;19920;-62
2022/08/03 11:16:34;;;;;;;;;;;24.40;54.00;;;;;;5093265;28;20359;-63
2022/08/03 11:19:02;;;;;;;;;;;24.40;54.10;;;;;;5096640;28;20018;-63
2022/08/03 11:21:47;;;;;;;;;;;24.40;54.10;;;;;;5110209;27;20326;-62
2022/08/03 11:24:29;;;;;;;;;;;24.40;54.10;;;;;;5085764;28;19956;-63
2022/08/03 11:27:10;;;;;;;;;;;24.40;54.10;;;;;;5079503;28;19970;-63
2022/08/03 11:29:39;;;;;;;;;;;24.40;54.20;;;;;;5074489;28;19963;-63
2022/08/03 11:32:05;;;;;;;;;;;24.40;54.30;;;;;;5098881;28;19940;-63
2022/08/03 11:34:32;;;;;;;;;;;24.40;54.20;;;;;;5084630;28;20012;-64
2022/08/03 11:37:17;;;;;;;;;;;24.40;54.20;;;;;;5082803;28;19932;-63
2022/08/03 11:39:45;;;;;;;;;;;24.40;54.30;;;;;;5079797;28;19921;-62
2022/08/03 11:42:30;;;;;;;;;;;24.40;54.50;;;;;;5081252;28;20341;-62
2022/08/03 11:44:59;;;;;;;;;;;24.50;54.60;;;;;;5066804;28;19927;-63
2022/08/03 11:47:26;;;;;;;;;;;24.50;54.80;;;;;;5088128;28;20373;-63
2022/08/03 11:49:53;;;;;;;;;;;24.50;54.70;;;;;;5071714;28;19975;-61
2022/08/03 11:52:20;;;;;;;;;;;24.50;54.60;;;;;;5102918;27;19986;-62
2022/08/03 11:54:48;;;;;;;;;;;24.50;54.60;;;;;;5110022;27;19927;-62
2022/08/03 11:57:14;;;;;;;;;;;24.50;55.10;;;;;;5084195;28;19920;-62
2022/08/03 11:59:41;;;;;;;;;;;24.50;54.50;;;;;;5073400;28;20341;-62
2022/08/03 12:02:10;;;;;;;;;;;24.50;54.50;;;;;;5070821;28;20258;-62
2022/08/03 12:04:49;;;;;;;;;;;24.50;54.40;;;;;;5079421;28;19920;-63
2022/08/03 12:07:16;;;;;;;;;;;24.50;54.40;;;;;;5072231;28;19920;-61
2022/08/03 12:09:43;;;;;;;;;;;24.50;54.40;;;;;;5079675;28;19934;-61
2022/08/03 12:12:10;;;;;;;;;;;24.50;54.40;;;;;;5110209;27;20325;-62
2022/08/03 12:14:37;;;;;;;;;;;24.60;54.50;;;;;;5070264;28;19966;-62
2022/08/03 12:17:04;;;;;;;;;;;24.50;54.50;;;;;;5077373;28;20350;-61
2022/08/03 12:19:42;;;;;;;;;;;24.50;54.50;;;;;;5088853;28;19920;-62
2022/08/03 12:22:09;;;;;;;;;;;24.50;54.50;;;;;;5060975;28;19942;-61
2022/08/03 12:24:42;;;;;;;;;;;24.50;54.40;;;;;;5110793;27;20951;-61
2022/08/03 12:27:09;;;;;;;;;;;24.50;54.40;;;;;;5080700;28;19974;-62
2022/08/03 12:29:35;;;;;;;;;;;24.50;54.40;;;;;;5077812;28;19959;-62
2022/08/03 12:32:02;;;;;;;;;;;24.50;54.50;;;;;;5097444;27;20270;-63
2022/08/03 12:34:44;;;;;;;;;;;24.50;54.40;;;;;;5085536;28;19920;-60
2022/08/03 12:37:12;;;;;;;;;;;24.60;54.50;;;;;;5082251;28;19927;-61
2022/08/03 12:39:39;;;;;;;;;;;24.60;54.50;;;;;;5094870;28;19967;-61
2022/08/03 12:42:06;;;;;;;;;;;24.60;54.50;;;;;;5087875;28;19933;-61
2022/08/03 12:44:33;;;;;;;;;;;24.60;54.50;;;;;;5076196;28;20282;-61
2022/08/03 12:47:00;;;;;;;;;;;24.60;54.50;;;;;;5061201;28;20366;-60
2022/08/03 12:49:28;;;;;;;;;;;24.60;54.50;;;;;;5097647;28;19966;-62
2022/08/03 12:51:58;;;;;;;;;;;24.60;54.50;;;;;;5099951;27;19943;-60
2022/08/03 12:54:26;;;;;;;;;;;24.60;54.40;;;;;;5078157;28;19967;-61
2022/08/03 12:56:56;;;;;;;;;;;24.60;54.50;;;;;;5070799;28;19956;-61
2022/08/03 12:59:23;;;;;;;;;;;24.60;54.50;;;;;;5077576;28;19923;-61
2022/08/03 13:01:50;;;;;;;;;;;24.60;54.50;;;;;;5074018;28;19920;-62
2022/08/03 13:04:25;;;;;;;;;;;24.60;54.50;;;;;;5084026;28;19974;-62
2022/08/03 13:06:56;;;;;;;;;;;24.60;54.40;;;;;;5099062;28;19921;-63
2022/08/03 13:09:25;;;;;;;;;;;24.60;54.40;;;;;;5089557;28;19973;-62
2022/08/03 13:12:05;;;;;;;;;;;24.60;54.50;;;;;;5063887;28;19920;-62
2022/08/03 13:14:32;;;;;;;;;;;24.60;54.50;;;;;;5086792;28;20345;-61
2022/08/03 13:16:59;;;;;;;;;;;24.60;54.40;;;;;;5086563;28;19927;-60
2022/08/03 13:19:26;;;;;;;;;;;24.60;54.40;;;;;;5079490;28;19973;-62
2022/08/03 13:21:52;;;;;;;;;;;24.60;54.40;;;;;;5097461;28;19950;-62
2022/08/03 13:24:19;;;;;;;;;;;24.60;54.40;;;;;;5070547;28;19921;-62
2022/08/03 13:26:46;;;;;;;;;;;24.60;54.50;;;;;;5078044;28;19928;-63
2022/08/03 13:29:14;;;;;;;;;;;24.60;54.40;;;;;;5097309;28;19924;-61
2022/08/03 13:31:41;;;;;;;;;;;24.60;54.40;;;;;;5076448;28;19932;-62
2022/08/03 13:34:08;;;;;;;;;;;24.60;54.40;;;;;;5072463;28;19946;-62
2022/08/03 13:36:34;;;;;;;;;;;24.60;54.40;;;;;;5071494;28;19924;-62
2022/08/03 13:39:01;;;;;;;;;;;24.60;54.50;;;;;;5083864;28;19955;-62
2022/08/03 13:41:28;;;;;;;;;;;24.70;54.50;;;;;;5076340;28;20018;-61
2022/08/03 13:43:55;;;;;;;;;;;24.60;54.40;;;;;;5078785;28;19974;-62
2022/08/03 13:46:25;;;;;;;;;;;24.70;54.50;;;;;;5085819;28;20353;-62
2022/08/03 13:48:52;;;;;;;;;;;24.70;54.50;;;;;;5078516;28;19920;-62
2022/08/03 13:51:19;;;;;;;;;;;24.70;54.50;;;;;;5077947;28;19943;-63
2022/08/03 13:53:45;;;;;;;;;;;24.70;54.50;;;;;;5082260;28;19920;-62
2022/08/03 13:56:12;;;;;;;;;;;24.70;54.50;;;;;;5070765;28;20384;-62
2022/08/03 13:58:39;;;;;;;;;;;24.70;54.50;;;;;;5079798;28;20361;-62
2022/08/03 14:01:06;;;;;;;;;;;24.70;54.50;;;;;;5065216;28;19943;-61
2022/08/03 14:03:34;;;;;;;;;;;24.70;54.50;;;;;;5089137;28;20006;-63
2022/08/03 14:06:00;;;;;;;;;;;24.70;54.50;;;;;;5075813;28;19920;-63
2022/08/03 14:08:27;;;;;;;;;;;24.70;54.50;;;;;;5102968;27;19925;-62
2022/08/03 14:10:54;;;;;;;;;;;24.70;54.50;;;;;;5081086;28;20570;-62
2022/08/03 14:13:21;;;;;;;;;;;24.70;54.50;;;;;;5093689;28;19963;-62
2022/08/03 14:15:48;;;;;;;;;;;24.70;54.40;;;;;;5078714;28;19931;-62
2022/08/03 14:18:14;;;;;;;;;;;24.70;54.40;;;;;;5084940;28;20068;-61
2022/08/03 14:20:42;;;;;;;;;;;24.70;54.40;;;;;;5075192;28;20011;-62
2022/08/03 14:23:09;;;;;;;;;;;24.70;54.40;;;;;;5071991;28;19964;-62
2022/08/03 14:25:36;;;;;;;;;;;24.70;54.40;;;;;;5104419;28;19927;-62
2022/08/03 14:28:03;;;;;;;;;;;24.70;54.50;;;;;;5087604;28;19920;-62
2022/08/03 14:30:30;;;;;;;;;;;24.70;54.40;;;;;;5075333;28;19920;-61